createdAt,value
2023-04-07T00:01:11.064Z,101215.94
2023-04-07T00:03:41.192Z,101214.13
2023-04-07T00:06:08.637Z,101211.31
2023-04-07T00:08:36.058Z,101213.31
2023-04-07T00:11:03.440Z,101219.59
2023-04-07T00:13:30.946Z,101214.00
2023-04-07T00:15:58.342Z,101210.69
2023-04-07T00:18:25.822Z,101206.72
2023-04-07T00:20:53.307Z,101212.03
2023-04-07T00:23:20.712Z,101212.34
2023-04-07T00:25:51.118Z,101215.66
2023-04-07T00:28:18.548Z,101214.81
2023-04-07T00:30:46.270Z,101217.47
2023-04-07T00:33:13.725Z,101220.03
2023-04-07T00:35:41.373Z,101225.16
2023-04-07T00:38:08.830Z,101225.47
2023-04-07T00:40:36.841Z,101229.09
2023-04-07T00:43:04.382Z,101228.38
2023-04-07T00:45:31.864Z,101212.88
2023-04-07T00:47:59.584Z,101223.78
2023-04-07T00:50:27.484Z,101216.03
2023-04-07T00:52:57.257Z,101216.84
2023-04-07T00:55:24.621Z,101216.47
2023-04-07T00:57:52.332Z,101222.25
2023-04-07T01:00:20.073Z,101220.94
2023-04-07T01:03:09.962Z,101218.91
2023-04-07T01:05:56.409Z,101216.75
2023-04-07T01:08:45.628Z,101222.94
2023-04-07T01:11:39.694Z,101212.53
2023-04-07T01:14:11.622Z,101221.91
2023-04-07T01:16:52.478Z,101223.84
2023-04-07T01:19:36.041Z,101215.44
2023-04-07T01:22:18.307Z,101220.38
2023-04-07T01:24:58.262Z,101219.84
2023-04-07T01:27:40.885Z,101220.34
2023-04-07T01:30:12.152Z,101217.19
2023-04-07T01:32:42.105Z,101216.84
2023-04-07T01:35:14.296Z,101217.50
2023-04-07T01:37:43.330Z,101215.66
2023-04-07T01:40:11.920Z,101210.78
2023-04-07T01:42:40.251Z,101227.88
2023-04-07T01:45:08.701Z,101223.41
2023-04-07T01:47:37.943Z,101222.13
2023-04-07T01:50:09.473Z,101223.78
2023-04-07T01:52:38.139Z,101217.50
2023-04-07T01:55:06.826Z,101224.09
2023-04-07T01:57:40.327Z,101225.38
2023-04-07T02:00:14.645Z,101220.03
2023-04-07T02:02:58.430Z,101233.41
2023-04-07T02:05:30.101Z,101227.41
2023-04-07T02:08:04.306Z,101233.28
2023-04-07T02:10:37.460Z,101227.63
2023-04-07T02:13:07.551Z,101236.94
2023-04-07T02:15:37.470Z,101243.03
2023-04-07T02:18:05.547Z,101236.69
2023-04-07T02:20:35.689Z,101235.63
2023-04-07T02:23:04.175Z,101247.91
2023-04-07T02:25:33.075Z,101241.75
2023-04-07T02:28:01.712Z,101239.56
2023-04-07T02:30:29.559Z,101245.53
2023-04-07T02:32:57.174Z,101238.50
2023-04-07T02:35:25.017Z,101238.38
2023-04-07T02:37:52.492Z,101242.97
2023-04-07T02:40:20.392Z,101252.47
2023-04-07T02:42:47.963Z,101240.72
2023-04-07T02:45:16.343Z,101248.31
2023-04-07T02:47:43.661Z,101247.34
2023-04-07T02:50:11.711Z,101261.69
2023-04-07T02:52:39.235Z,101257.03
2023-04-07T02:55:12.165Z,101254.13
2023-04-07T02:57:39.896Z,101270.84
2023-04-07T03:00:14.196Z,101257.06
2023-04-07T03:02:58.905Z,101258.66
2023-04-07T03:05:29.445Z,101262.59
2023-04-07T03:07:56.883Z,101258.75
2023-04-07T03:10:24.590Z,101255.69
2023-04-07T03:12:52.519Z,101268.84
2023-04-07T03:15:19.954Z,101267.97
2023-04-07T03:17:49.060Z,101264.28
2023-04-07T03:20:17.859Z,101279.19
2023-04-07T03:22:47.608Z,101273.91
2023-04-07T03:25:33.131Z,101284.44
2023-04-07T03:28:02.439Z,101265.56
2023-04-07T03:30:33.805Z,101276.91
2023-04-07T03:33:01.239Z,101264.41
2023-04-07T03:35:30.289Z,101273.75
2023-04-07T03:37:57.721Z,101278.44
2023-04-07T03:40:26.009Z,101277.88
2023-04-07T03:42:53.733Z,101275.53
2023-04-07T03:45:21.724Z,101280.72
2023-04-07T03:47:52.119Z,101291.50
2023-04-07T03:50:22.242Z,101297.13
2023-04-07T03:52:58.015Z,101300.13
2023-04-07T03:55:28.964Z,101297.59
2023-04-07T03:58:01.553Z,101305.47
2023-04-07T04:00:34.002Z,101307.38
2023-04-07T04:03:07.910Z,101312.94
2023-04-07T04:05:39.306Z,101298.94
2023-04-07T04:08:07.632Z,101311.34
2023-04-07T04:10:38.627Z,101306.00
2023-04-07T04:13:08.241Z,101315.03
2023-04-07T04:15:36.332Z,101312.63
2023-04-07T04:18:06.441Z,101309.75
2023-04-07T04:20:34.470Z,101311.03
2023-04-07T04:23:04.527Z,101311.34
2023-04-07T04:25:32.068Z,101311.03
2023-04-07T04:28:01.454Z,101309.75
2023-04-07T04:30:28.865Z,101317.28
2023-04-07T04:33:01.413Z,101320.06
2023-04-07T04:35:43.199Z,101329.38
2023-04-07T04:38:14.607Z,101312.13
2023-04-07T04:40:47.075Z,101317.63
2023-04-07T04:43:17.661Z,101319.34
2023-04-07T04:45:45.926Z,101316.41
2023-04-07T04:48:16.245Z,101320.16
2023-04-07T04:50:44.695Z,101314.25
2023-04-07T04:53:14.715Z,101335.53
2023-04-07T04:55:55.622Z,101320.34
2023-04-07T04:58:29.484Z,101310.78
2023-04-07T05:01:04.620Z,101326.66
2023-04-07T05:03:43.691Z,101330.31
2023-04-07T05:06:19.800Z,101322.44
2023-04-07T05:08:52.155Z,101327.56
2023-04-07T05:11:24.447Z,101334.69
2023-04-07T05:13:55.655Z,101321.88
2023-04-07T05:16:24.995Z,101344.16
2023-04-07T05:18:53.629Z,101330.66
2023-04-07T05:21:22.980Z,101340.72
2023-04-07T05:23:54.053Z,101324.47
2023-04-07T05:26:24.281Z,101330.41
2023-04-07T05:28:52.455Z,101334.16
2023-04-07T05:31:25.292Z,101328.28
2023-04-07T05:33:56.845Z,101345.75
2023-04-07T05:36:30.030Z,101343.44
2023-04-07T05:38:58.560Z,101339.50
2023-04-07T05:41:28.614Z,101341.50
2023-04-07T05:44:05.104Z,101329.63
2023-04-07T05:46:36.035Z,101336.22
2023-04-07T05:49:18.888Z,101336.38
2023-04-07T05:51:58.273Z,101334.09
2023-04-07T05:54:28.744Z,101327.78
2023-04-07T05:57:04.829Z,101336.22
2023-04-07T05:59:46.226Z,101338.16
2023-04-07T06:02:28.531Z,101322.34
2023-04-07T06:05:24.337Z,101328.28
2023-04-07T06:08:07.820Z,101328.94
2023-04-07T06:10:39.415Z,101348.25
2023-04-07T06:13:18.149Z,101356.00
2023-04-07T06:15:56.595Z,101355.47
2023-04-07T06:18:24.334Z,101352.00
2023-04-07T06:20:52.048Z,101348.00
2023-04-07T06:23:23.167Z,101353.56
2023-04-07T06:26:12.102Z,101347.81
2023-04-07T06:28:42.864Z,101348.63
2023-04-07T06:31:13.602Z,101336.16
2023-04-07T06:33:48.406Z,101339.66
2023-04-07T06:36:22.505Z,101359.78
2023-04-07T06:38:53.436Z,101356.81
2023-04-07T06:41:22.496Z,101353.53
2023-04-07T06:43:54.978Z,101336.75
2023-04-07T06:46:23.108Z,101340.22
2023-04-07T06:48:54.123Z,101348.56
2023-04-07T06:51:21.839Z,101342.94
2023-04-07T06:53:49.947Z,101346.38
2023-04-07T06:56:17.969Z,101355.63
2023-04-07T06:58:45.802Z,101349.31
2023-04-07T07:01:14.840Z,101350.97
2023-04-07T07:03:42.515Z,101352.97
2023-04-07T07:06:11.520Z,101356.88
2023-04-07T07:08:39.441Z,101359.47
2023-04-07T07:11:07.102Z,101354.91
2023-04-07T07:13:34.941Z,101352.44
2023-04-07T07:16:03.461Z,101339.03
2023-04-07T07:18:33.279Z,101348.75
2023-04-07T07:21:01.460Z,101333.13
2023-04-07T07:23:30.268Z,101350.50
2023-04-07T07:26:16.424Z,101348.13
2023-04-07T07:28:46.144Z,101353.38
2023-04-07T07:31:16.067Z,101345.25
2023-04-07T07:33:47.444Z,101348.38
2023-04-07T07:36:15.335Z,101345.19
2023-04-07T07:38:44.839Z,101335.31
2023-04-07T07:41:17.218Z,101345.00
2023-04-07T07:43:45.081Z,101333.81
2023-04-07T07:46:13.850Z,101335.41
2023-04-07T07:48:42.421Z,101340.63
2023-04-07T07:51:11.695Z,101339.78
2023-04-07T07:53:39.599Z,101336.97
2023-04-07T07:56:07.648Z,101325.66
2023-04-07T07:58:35.505Z,101330.13
2023-04-07T08:01:03.108Z,101329.88
2023-04-07T08:03:31.386Z,101321.09
2023-04-07T08:05:59.088Z,101337.03
2023-04-07T08:08:28.823Z,101329.38
2023-04-07T08:11:01.934Z,101338.63
2023-04-07T08:13:31.701Z,101331.75
2023-04-07T08:16:01.293Z,101336.06
2023-04-07T08:18:29.264Z,101342.16
2023-04-07T08:21:01.533Z,101339.22
2023-04-07T08:23:45.080Z,101332.69
2023-04-07T08:26:16.359Z,101327.50
2023-04-07T08:29:06.006Z,101322.56
2023-04-07T08:31:33.956Z,101334.47
2023-04-07T08:34:02.186Z,101332.94
2023-04-07T08:36:30.548Z,101353.06
2023-04-07T08:39:01.465Z,101347.38
2023-04-07T08:41:38.925Z,101342.88
2023-04-07T08:44:11.815Z,101337.44
2023-04-07T08:46:40.902Z,101339.78
2023-04-07T08:49:12.487Z,101332.16
2023-04-07T08:51:48.196Z,101348.88
2023-04-07T08:54:22.959Z,101343.41
2023-04-07T08:56:51.567Z,101344.84
2023-04-07T08:59:19.092Z,101353.81
2023-04-07T09:01:47.772Z,101347.50
2023-04-07T09:04:16.609Z,101340.81
2023-04-07T09:06:44.623Z,101344.94
2023-04-07T09:09:13.435Z,101350.56
2023-04-07T09:11:52.940Z,101343.13
2023-04-07T09:14:29.678Z,101325.75
2023-04-07T09:16:57.365Z,101333.56
2023-04-07T09:19:29.929Z,101327.69
2023-04-07T09:22:09.625Z,101333.06
2023-04-07T09:24:44.545Z,101331.19
2023-04-07T09:27:18.501Z,101329.94
2023-04-07T09:29:56.478Z,101331.03
2023-04-07T09:32:41.983Z,101324.91
2023-04-07T09:35:10.264Z,101336.41
2023-04-07T09:37:38.876Z,101338.63
2023-04-07T09:40:28.886Z,101324.81
2023-04-07T09:42:59.280Z,101340.63
2023-04-07T09:48:00.758Z,101329.44
2023-04-07T09:50:34.857Z,101334.38
2023-04-07T09:53:04.384Z,101330.66
2023-04-07T09:55:32.548Z,101329.66
2023-04-07T09:58:02.296Z,101317.16
2023-04-07T10:00:29.790Z,101340.16
2023-04-07T10:02:58.349Z,101336.41
2023-04-07T10:05:29.252Z,101336.00
2023-04-07T10:07:57.503Z,101334.38
2023-04-07T10:10:26.900Z,101331.94
2023-04-07T10:13:00.838Z,101329.47
2023-04-07T10:15:28.624Z,101324.97
2023-04-07T10:17:57.369Z,101328.25
2023-04-07T10:20:25.556Z,101320.47
2023-04-07T10:22:57.277Z,101318.00
2023-04-07T10:25:26.548Z,101322.09
2023-04-07T10:28:10.322Z,101347.16
2023-04-07T10:30:38.021Z,101318.22
2023-04-07T10:33:05.433Z,101337.28
2023-04-07T10:36:06.301Z,101313.88
2023-04-07T10:38:35.191Z,101316.34
2023-04-07T10:41:37.964Z,101329.66
2023-04-07T10:44:07.327Z,101334.34
2023-04-07T10:47:04.895Z,101320.81
2023-04-07T10:49:36.325Z,101314.84
2023-04-07T10:52:12.833Z,101318.31
2023-04-07T10:54:41.100Z,101315.25
2023-04-07T10:57:16.260Z,101312.53
2023-04-07T11:00:12.528Z,101313.31
2023-04-07T11:02:41.295Z,101327.28
2023-04-07T11:05:09.228Z,101301.63
2023-04-07T11:07:52.571Z,101314.94
2023-04-07T11:10:22.557Z,101304.00
2023-04-07T11:13:07.944Z,101301.72
2023-04-07T11:15:39.295Z,101305.63
2023-04-07T11:18:09.668Z,101312.19
2023-04-07T11:20:53.889Z,101293.28
2023-04-07T11:23:24.187Z,101324.31
2023-04-07T11:26:04.673Z,101307.06
2023-04-07T11:28:32.726Z,101308.50
2023-04-07T11:31:02.615Z,101307.06
2023-04-07T11:33:32.872Z,101304.63
2023-04-07T11:36:01.999Z,101302.78
2023-04-07T11:38:35.894Z,101323.94
2023-04-07T11:41:14.494Z,101310.78
2023-04-07T11:43:42.880Z,101311.59
2023-04-07T11:46:19.771Z,101303.75
2023-04-07T11:48:47.799Z,101299.69
2023-04-07T11:51:24.665Z,101310.75
2023-04-07T11:53:57.246Z,101299.66
2023-04-07T11:56:24.988Z,101296.97
2023-04-07T11:58:54.417Z,101302.25
2023-04-07T12:01:25.048Z,101301.28
2023-04-07T12:04:02.923Z,101298.00
2023-04-07T12:06:42.279Z,101307.84
2023-04-07T12:09:27.632Z,101310.06
2023-04-07T12:11:58.937Z,101301.44
2023-04-07T12:14:28.128Z,101315.06
2023-04-07T12:16:58.313Z,101300.06
2023-04-07T12:19:29.784Z,101304.94
2023-04-07T12:21:57.993Z,101311.13
2023-04-07T12:24:25.431Z,101305.16
2023-04-07T12:26:53.656Z,101304.53
2023-04-07T12:29:21.270Z,101326.38
2023-04-07T12:31:50.880Z,101304.53
2023-04-07T12:34:19.581Z,101299.19
2023-04-07T12:36:49.895Z,101307.22
2023-04-07T12:39:17.822Z,101301.44
2023-04-07T12:41:49.434Z,101303.28
2023-04-07T12:44:17.415Z,101319.34
2023-04-07T12:46:45.297Z,101315.69
2023-04-07T12:49:12.763Z,101296.09
2023-04-07T12:51:40.804Z,101306.78
2023-04-07T12:54:08.680Z,101304.53
2023-04-07T12:56:36.768Z,101311.50
2023-04-07T12:59:04.442Z,101311.50
2023-04-07T13:01:31.896Z,101317.28
2023-04-07T13:03:59.584Z,101313.19
2023-04-07T13:06:27.579Z,101314.78
2023-04-07T13:08:56.826Z,101305.75
2023-04-07T13:11:24.632Z,101303.50
2023-04-07T13:13:56.511Z,101314.81
2023-04-07T13:16:25.405Z,101297.97
2023-04-07T13:18:52.803Z,101300.84
2023-04-07T13:21:43.752Z,101301.66
2023-04-07T13:24:08.487Z,101309.63
2023-04-07T13:26:35.872Z,101302.88
2023-04-07T13:29:03.337Z,101302.03
2023-04-07T13:31:30.801Z,101308.81
2023-04-07T13:33:58.613Z,101307.78
2023-04-07T13:36:27.698Z,101314.00
2023-04-07T13:38:55.087Z,101312.38
2023-04-07T13:41:22.853Z,101318.34
2023-04-07T13:43:50.296Z,101302.75
2023-04-07T13:46:27.444Z,101330.09
2023-04-07T13:48:56.883Z,101324.31
2023-04-07T13:51:24.177Z,101316.16
2023-04-07T13:53:51.702Z,101337.13
2023-04-07T13:56:19.123Z,101307.56
2023-04-07T13:58:46.866Z,101317.00
2023-04-07T14:01:14.107Z,101315.34
2023-04-07T14:03:41.730Z,101319.63
2023-04-07T14:06:09.184Z,101319.91
2023-04-07T14:08:36.578Z,101311.25
2023-04-07T14:11:03.931Z,101314.94
2023-04-07T14:13:31.498Z,101334.69
2023-04-07T14:15:58.832Z,101317.47
2023-04-07T14:18:28.244Z,101319.53
2023-04-07T14:20:55.592Z,101319.75
2023-04-07T14:23:34.285Z,101325.50
2023-04-07T14:26:04.473Z,101320.75
2023-04-07T14:28:32.035Z,101325.28
2023-04-07T14:30:59.412Z,101320.38
2023-04-07T14:33:26.922Z,101321.59
2023-04-07T14:35:54.322Z,101322.66
2023-04-07T14:38:24.647Z,101336.81
2023-04-07T14:40:55.538Z,101330.47
2023-04-07T14:43:22.980Z,101328.44
2023-04-07T14:45:50.431Z,101326.59
2023-04-07T14:48:17.807Z,101328.03
2023-04-07T14:50:46.157Z,101325.78
2023-04-07T14:53:14.186Z,101322.50
2023-04-07T14:55:42.401Z,101323.75
2023-04-07T14:58:09.743Z,101334.22
2023-04-07T15:00:37.104Z,101338.13
2023-04-07T15:03:05.079Z,101346.13
2023-04-07T15:05:33.030Z,101336.06
2023-04-07T15:08:00.570Z,101343.22
2023-04-07T15:10:27.930Z,101339.31
2023-04-07T15:12:55.283Z,101341.19
2023-04-07T15:15:24.510Z,101344.47
2023-04-07T15:17:51.854Z,101346.09
2023-04-07T15:20:19.212Z,101351.22
2023-04-07T15:22:46.627Z,101347.50
2023-04-07T15:25:13.911Z,101349.56
2023-04-07T15:27:41.214Z,101357.75
2023-04-07T15:30:09.112Z,101367.19
2023-04-07T15:32:36.425Z,101365.97
2023-04-07T15:35:03.884Z,101379.88
2023-04-07T15:37:31.235Z,101369.16
2023-04-07T15:39:58.576Z,101368.72
2023-04-07T15:42:26.028Z,101376.09
2023-04-07T15:44:53.340Z,101379.94
2023-04-07T15:47:22.094Z,101376.41
2023-04-07T15:49:49.451Z,101390.31
2023-04-07T15:52:16.758Z,101378.03
2023-04-07T15:54:44.100Z,101391.50
2023-04-07T15:57:11.931Z,101390.09
2023-04-07T15:59:39.082Z,101401.50
2023-04-07T16:02:06.749Z,101405.34
2023-04-07T16:04:34.150Z,101401.19
2023-04-07T16:07:01.520Z,101412.16
2023-04-07T16:09:28.954Z,101407.00
2023-04-07T16:11:56.213Z,101411.69
2023-04-07T16:14:23.573Z,101423.88
2023-04-07T16:16:53.994Z,101434.19
2023-04-07T16:19:21.354Z,101436.63
2023-04-07T16:21:48.782Z,101425.91
2023-04-07T16:24:16.123Z,101440.16
2023-04-07T16:26:43.526Z,101436.06
2023-04-07T16:29:11.066Z,101432.53
2023-04-07T16:31:38.427Z,101448.59
2023-04-07T16:34:05.892Z,101453.66
2023-04-07T16:36:33.327Z,101451.91
2023-04-07T16:39:00.776Z,101460.84
2023-04-07T16:41:28.151Z,101450.31
2023-04-07T16:43:55.500Z,101463.72
2023-04-07T16:46:26.439Z,101456.31
2023-04-07T16:48:53.822Z,101470.16
2023-04-07T16:51:21.399Z,101486.22
2023-04-07T16:53:48.930Z,101463.94
2023-04-07T16:56:17.712Z,101480.25
2023-04-07T16:58:45.417Z,101479.72
2023-04-07T17:01:12.821Z,101478.91
2023-04-07T17:03:40.927Z,101480.16
2023-04-07T17:06:08.588Z,101500.34
2023-04-07T17:08:37.197Z,101496.19
2023-04-07T17:11:09.298Z,101502.63
2023-04-07T17:13:37.842Z,101500.41
2023-04-07T17:16:05.465Z,101507.44
2023-04-07T17:18:33.520Z,101500.22
2023-04-07T17:21:00.920Z,101514.13
2023-04-07T17:23:28.654Z,101518.66
2023-04-07T17:25:56.090Z,101504.06
2023-04-07T17:28:23.453Z,101509.94
2023-04-07T17:30:50.838Z,101524.72
2023-04-07T17:33:18.269Z,101519.94
2023-04-07T17:35:47.878Z,101530.28
2023-04-07T17:38:15.655Z,101530.94
2023-04-07T17:40:43.230Z,101530.66
2023-04-07T17:43:11.371Z,101532.34
2023-04-07T17:45:38.636Z,101537.34
2023-04-07T17:48:09.840Z,101561.31
2023-04-07T17:50:38.144Z,101546.72
2023-04-07T17:53:05.537Z,101557.88
2023-04-07T17:55:33.462Z,101554.72
2023-04-07T17:58:03.615Z,101552.44
2023-04-07T18:00:30.963Z,101545.34
2023-04-07T18:02:59.297Z,101576.38
2023-04-07T18:05:27.348Z,101560.00
2023-04-07T18:07:55.231Z,101557.38
2023-04-07T18:10:22.511Z,101567.34
2023-04-07T18:12:49.675Z,101581.59
2023-04-07T18:15:16.816Z,101557.97
2023-04-07T18:17:44.384Z,101557.78
2023-04-07T18:20:12.192Z,101570.91
2023-04-07T18:22:39.551Z,101570.91
2023-04-07T18:25:07.409Z,101572.91
2023-04-07T18:27:34.753Z,101577.69
2023-04-07T18:30:02.178Z,101567.75
2023-04-07T18:32:31.242Z,101582.84
2023-04-07T18:34:58.692Z,101575.88
2023-04-07T18:37:26.582Z,101576.69
2023-04-07T18:39:54.161Z,101578.19
2023-04-07T18:42:21.841Z,101570.09
2023-04-07T18:44:49.254Z,101579.19
2023-04-07T18:47:16.770Z,101590.97
2023-04-07T18:49:44.157Z,101583.66
2023-04-07T18:52:11.817Z,101591.78
2023-04-07T18:54:39.229Z,101589.13
2023-04-07T18:57:06.501Z,101590.31
2023-04-07T18:59:33.932Z,101580.53
2023-04-07T19:02:01.414Z,101594.09
2023-04-07T19:04:28.883Z,101585.84
2023-04-07T19:06:57.730Z,101585.66
2023-04-07T19:09:26.219Z,101598.25
2023-04-07T19:11:53.788Z,101592.09
2023-04-07T19:14:21.372Z,101599.06
2023-04-07T19:16:48.773Z,101601.41
2023-04-07T19:19:17.177Z,101617.13
2023-04-07T19:21:44.653Z,101597.09
2023-04-07T19:24:12.110Z,101588.31
2023-04-07T19:26:39.399Z,101601.41
2023-04-07T19:29:07.255Z,101602.69
2023-04-07T19:31:34.677Z,101610.31
2023-04-07T19:34:02.057Z,101605.03
2023-04-07T19:36:29.869Z,101601.56
2023-04-07T19:38:57.169Z,101609.34
2023-04-07T19:41:24.561Z,101603.88
2023-04-07T19:43:52.021Z,101623.75
2023-04-07T19:46:19.504Z,101619.28
2023-04-07T19:48:47.174Z,101614.63
2023-04-07T19:51:15.256Z,101619.59
2023-04-07T19:53:42.573Z,101626.56
2023-04-07T19:56:11.308Z,101625.72
2023-04-07T19:58:38.903Z,101622.25
2023-04-07T20:01:06.311Z,101623.59
2023-04-07T20:03:33.812Z,101626.72
2023-04-07T20:06:01.313Z,101635.16
2023-04-07T20:08:28.684Z,101649.41
2023-04-07T20:10:56.112Z,101644.25
2023-04-07T20:13:24.160Z,101634.50
2023-04-07T20:15:51.601Z,101638.81
2023-04-07T20:18:19.161Z,101648.38
2023-04-07T20:20:46.911Z,101653.34
2023-04-07T20:23:16.244Z,101656.97
2023-04-07T20:25:43.571Z,101660.78
2023-04-07T20:28:11.222Z,101657.31
2023-04-07T20:30:38.621Z,101651.38
2023-04-07T20:33:06.284Z,101656.97
2023-04-07T20:35:33.760Z,101661.97
2023-04-07T20:38:02.909Z,101669.41
2023-04-07T20:40:31.131Z,101663.94
2023-04-07T20:42:58.614Z,101669.56
2023-04-07T20:45:26.178Z,101665.91
2023-04-07T20:47:53.607Z,101660.97
2023-04-07T20:50:21.388Z,101672.19
2023-04-07T20:52:48.753Z,101671.03
2023-04-07T20:55:16.353Z,101672.47
2023-04-07T20:57:43.884Z,101675.81
2023-04-07T21:00:11.515Z,101668.69
